createdAt,value
2019-03-06T00:01:08.347Z,8.00
2019-03-06T00:03:34.595Z,8.45
2019-03-06T00:06:00.833Z,9.25
2019-03-06T00:08:27.445Z,9.10
2019-03-06T00:10:53.663Z,8.60
2019-03-06T00:13:19.894Z,9.63
2019-03-06T00:15:46.666Z,9.48
2019-03-06T00:18:12.889Z,8.35
2019-03-06T00:20:39.137Z,9.45
2019-03-06T00:23:05.458Z,9.03
2019-03-06T00:25:31.719Z,9.93
2019-03-06T00:27:57.948Z,8.83
2019-03-06T00:30:35.463Z,9.85
2019-03-06T00:33:01.680Z,9.33
2019-03-06T00:35:35.707Z,10.45
2019-03-06T00:38:02.089Z,9.20
2019-03-06T00:40:30.373Z,9.83
2019-03-06T00:42:56.633Z,9.90
2019-03-06T00:45:22.875Z,10.38
2019-03-06T00:47:49.532Z,9.58
2019-03-06T00:50:15.907Z,10.65
2019-03-06T00:52:42.131Z,10.95
2019-03-06T00:55:10.198Z,9.73
2019-03-06T00:57:36.556Z,10.70
2019-03-06T01:00:12.253Z,10.10
2019-03-06T01:02:38.790Z,10.08
2019-03-06T01:05:07.036Z,8.75
2019-03-06T01:07:33.259Z,10.35
2019-03-06T01:09:59.819Z,10.13
2019-03-06T01:12:26.060Z,10.00
2019-03-06T01:14:52.315Z,9.80
2019-03-06T01:17:18.923Z,9.25
2019-03-06T01:19:45.176Z,9.10
2019-03-06T01:22:11.787Z,8.78
2019-03-06T01:24:38.038Z,8.55
2019-03-06T01:27:04.385Z,8.43
2019-03-06T01:29:30.760Z,8.95
2019-03-06T01:31:56.989Z,9.08
2019-03-06T01:37:08.137Z,8.75
2019-03-06T01:39:51.367Z,9.90
2019-03-06T01:42:19.806Z,9.23
2019-03-06T01:44:47.566Z,9.23
2019-03-06T01:47:13.807Z,8.50
2019-03-06T01:49:40.071Z,9.25
2019-03-06T01:52:06.299Z,8.25
2019-03-06T01:54:32.561Z,8.75
2019-03-06T01:56:58.799Z,8.30
2019-03-06T01:59:25.051Z,8.90
2019-03-06T02:01:51.603Z,9.03
2019-03-06T02:04:17.851Z,8.90
2019-03-06T02:06:50.464Z,9.38
2019-03-06T02:09:19.115Z,8.80
2019-03-06T02:11:45.341Z,8.45
2019-03-06T02:14:11.798Z,8.90
2019-03-06T02:16:38.376Z,9.20
2019-03-06T02:19:05.030Z,8.50
2019-03-06T02:21:31.551Z,9.33
2019-03-06T02:23:58.231Z,10.45
2019-03-06T02:26:24.462Z,8.80
2019-03-06T02:28:50.905Z,10.30
2019-03-06T02:31:17.240Z,9.73
2019-03-06T02:33:43.497Z,9.35
2019-03-06T02:36:09.720Z,10.25
2019-03-06T02:38:36.315Z,9.78
2019-03-06T02:41:02.639Z,11.38
2019-03-06T02:43:28.894Z,11.40
2019-03-06T02:45:55.143Z,11.90
2019-03-06T02:48:21.383Z,11.25
2019-03-06T02:50:47.611Z,12.43
2019-03-06T02:53:13.878Z,11.03
2019-03-06T02:55:40.108Z,10.88
2019-03-06T02:58:23.643Z,11.43
2019-03-06T03:01:10.347Z,12.07
2019-03-06T03:03:55.101Z,10.38
2019-03-06T03:06:23.681Z,11.43
2019-03-06T03:08:50.219Z,11.45
2019-03-06T03:11:16.466Z,11.40
2019-03-06T03:13:42.730Z,11.90
2019-03-06T03:16:08.955Z,11.90
2019-03-06T03:18:35.593Z,12.63
2019-03-06T03:21:02.172Z,11.53
2019-03-06T03:23:28.425Z,12.75
2019-03-06T03:25:54.652Z,11.18
2019-03-06T03:28:26.906Z,11.20
2019-03-06T03:30:53.153Z,11.88
2019-03-06T03:33:19.406Z,11.78
2019-03-06T03:35:45.642Z,12.25
2019-03-06T03:38:11.885Z,12.65
2019-03-06T03:40:38.131Z,12.53
2019-03-06T03:43:04.364Z,13.55
2019-03-06T03:45:31.035Z,13.03
2019-03-06T03:47:57.260Z,14.65
2019-03-06T03:50:23.814Z,14.95
2019-03-06T03:52:50.047Z,14.75
2019-03-06T03:55:17.015Z,13.98
2019-03-06T03:57:43.436Z,14.23
2019-03-06T04:00:12.910Z,15.10
2019-03-06T04:02:39.135Z,14.25
2019-03-06T04:05:07.616Z,14.95
2019-03-06T04:07:34.152Z,13.43
2019-03-06T04:10:00.676Z,14.55
2019-03-06T04:12:26.927Z,15.03
2019-03-06T04:14:53.157Z,14.98
2019-03-06T04:17:19.433Z,15.80
2019-03-06T04:19:45.662Z,15.80
2019-03-06T04:22:11.892Z,17.00
2019-03-06T04:24:38.157Z,16.32
2019-03-06T04:27:04.373Z,17.57
2019-03-06T04:29:30.738Z,15.50
2019-03-06T04:31:57.049Z,15.60
2019-03-06T04:34:23.262Z,15.85
2019-03-06T04:36:49.713Z,17.67
2019-03-06T04:39:15.932Z,17.70
2019-03-06T04:41:42.186Z,15.10
2019-03-06T04:44:08.800Z,17.35
2019-03-06T04:46:35.046Z,16.80
2019-03-06T04:49:01.287Z,16.40
2019-03-06T04:51:27.539Z,16.05
2019-03-06T04:53:54.119Z,15.60
2019-03-06T04:56:20.361Z,16.73
2019-03-06T04:58:46.583Z,16.20
2019-03-06T05:01:12.830Z,15.25
2019-03-06T05:03:39.344Z,15.70
2019-03-06T05:06:05.595Z,14.63
2019-03-06T05:08:32.045Z,14.70
2019-03-06T05:10:58.265Z,15.98
2019-03-06T05:13:25.293Z,14.63
2019-03-06T05:15:51.766Z,16.42
2019-03-06T05:18:19.914Z,16.20
2019-03-06T05:20:46.141Z,15.15
2019-03-06T05:23:12.680Z,15.75
2019-03-06T05:25:38.899Z,16.97
2019-03-06T05:28:05.163Z,16.40
2019-03-06T05:30:31.393Z,17.50
2019-03-06T05:33:07.582Z,16.27
2019-03-06T05:35:58.819Z,15.58
2019-03-06T05:38:38.035Z,15.53
2019-03-06T05:41:04.376Z,14.93
2019-03-06T05:43:30.898Z,14.68
2019-03-06T05:46:05.015Z,15.00
2019-03-06T05:48:31.575Z,14.20
2019-03-06T05:50:57.832Z,14.90
2019-03-06T05:53:24.047Z,14.58
2019-03-06T05:55:50.472Z,13.90
2019-03-06T05:58:16.713Z,13.58
2019-03-06T06:00:43.068Z,13.65
2019-03-06T06:03:09.326Z,13.35
2019-03-06T06:05:35.538Z,13.13
2019-03-06T06:08:02.215Z,12.82
2019-03-06T06:10:28.467Z,11.18
2019-03-06T06:12:55.127Z,11.53
2019-03-06T06:15:21.725Z,13.15
2019-03-06T06:17:48.087Z,11.95
2019-03-06T06:20:14.614Z,12.15
2019-03-06T06:23:00.815Z,12.30
2019-03-06T06:25:28.141Z,11.88
2019-03-06T06:27:54.694Z,11.05
2019-03-06T06:30:22.101Z,12.65
2019-03-06T06:32:48.471Z,11.73
2019-03-06T06:35:15.010Z,11.73
2019-03-06T06:37:42.642Z,11.70
2019-03-06T06:40:10.851Z,10.90
2019-03-06T06:42:37.102Z,11.28
2019-03-06T06:45:12.822Z,11.45
2019-03-06T06:48:14.494Z,10.55
2019-03-06T06:50:47.351Z,11.15
2019-03-06T06:53:23.144Z,12.15
2019-03-06T06:55:56.190Z,11.28
2019-03-06T06:58:32.170Z,10.55
2019-03-06T07:01:12.253Z,11.00
2019-03-06T07:07:03.991Z,12.07
2019-03-06T07:09:44.231Z,11.93
2019-03-06T07:12:15.108Z,10.85
2019-03-06T07:14:45.833Z,11.15
2019-03-06T07:17:14.279Z,11.10
2019-03-06T07:19:42.493Z,10.90
2019-03-06T07:22:27.519Z,10.85
2019-03-06T07:24:58.985Z,10.72
2019-03-06T07:27:36.147Z,10.85
2019-03-06T07:30:24.714Z,9.70
2019-03-06T07:33:09.500Z,10.70
2019-03-06T07:35:53.215Z,9.25
2019-03-06T07:38:20.334Z,9.50
2019-03-06T07:41:05.332Z,9.05
2019-03-06T07:43:45.824Z,9.80
2019-03-06T07:46:31.288Z,9.30
2019-03-06T07:49:08.300Z,9.95
2019-03-06T07:51:48.485Z,8.90
2019-03-06T07:54:25.257Z,8.70
2019-03-06T07:57:02.788Z,8.23
2019-03-06T07:59:29.007Z,9.60
2019-03-06T08:02:02.007Z,9.20
2019-03-06T08:04:28.544Z,8.75
2019-03-06T08:06:57.029Z,8.68
2019-03-06T08:09:23.577Z,9.05
2019-03-06T08:12:08.297Z,8.20
2019-03-06T08:14:48.880Z,9.70
2019-03-06T08:17:35.161Z,8.43
2019-03-06T08:20:20.157Z,9.15
2019-03-06T08:22:54.413Z,8.85
2019-03-06T08:25:31.410Z,8.20
2019-03-06T08:27:57.650Z,8.43
2019-03-06T08:30:25.870Z,9.78
2019-03-06T08:32:52.111Z,9.10
2019-03-06T08:35:18.357Z,9.13
2019-03-06T08:37:55.490Z,8.28
2019-03-06T08:40:21.705Z,9.75
2019-03-06T08:42:48.263Z,8.93
2019-03-06T08:45:16.427Z,9.35
2019-03-06T08:48:01.299Z,9.20
2019-03-06T08:50:35.184Z,9.20
2019-03-06T08:53:12.246Z,8.63
2019-03-06T08:55:40.567Z,9.57
2019-03-06T08:58:14.959Z,8.93
2019-03-06T09:01:00.139Z,8.80
2019-03-06T09:03:28.919Z,8.78
2019-03-06T09:06:13.971Z,9.15
2019-03-06T09:08:54.619Z,8.58
2019-03-06T09:11:26.245Z,9.53
2019-03-06T09:14:03.692Z,8.68
2019-03-06T09:16:43.274Z,9.73
2019-03-06T09:19:28.326Z,9.10
2019-03-06T09:21:56.463Z,8.33
2019-03-06T09:24:24.601Z,8.27
2019-03-06T09:26:52.852Z,8.20
2019-03-06T09:29:23.920Z,8.67
2019-03-06T09:31:54.849Z,8.67
2019-03-06T09:34:28.188Z,8.63
2019-03-06T09:37:05.027Z,8.37
2019-03-06T09:39:33.180Z,9.73
2019-03-06T09:42:10.578Z,9.23
2019-03-06T09:44:44.518Z,9.30
2019-03-06T09:47:29.685Z,9.63
2019-03-06T09:50:06.722Z,9.80
2019-03-06T09:52:51.824Z,9.23
2019-03-06T09:55:22.711Z,10.20
2019-03-06T09:57:50.855Z,10.80
2019-03-06T10:00:34.304Z,10.20
2019-03-06T10:03:11.974Z,9.27
2019-03-06T10:05:40.154Z,11.33
2019-03-06T10:08:19.105Z,9.93
2019-03-06T10:10:57.036Z,10.70
2019-03-06T10:13:19.946Z,10.20
2019-03-06T10:15:53.939Z,9.67
2019-03-06T10:18:22.060Z,10.00
2019-03-06T10:20:48.375Z,10.90
2019-03-06T10:23:15.070Z,10.50
2019-03-06T10:25:41.390Z,10.40
2019-03-06T10:28:07.756Z,10.60
2019-03-06T10:30:34.480Z,10.20
2019-03-06T10:33:01.019Z,11.30
2019-03-06T10:35:27.259Z,9.70
2019-03-06T10:37:53.692Z,11.70
2019-03-06T10:40:37.131Z,11.10
2019-03-06T10:43:03.589Z,10.97
2019-03-06T10:45:30.194Z,10.43
2019-03-06T10:47:57.791Z,10.30
2019-03-06T10:50:27.445Z,10.73
2019-03-06T10:52:52.444Z,12.20
2019-03-06T10:55:19.199Z,10.80
2019-03-06T10:57:46.031Z,11.17
2019-03-06T11:00:22.095Z,11.10
2019-03-06T11:02:49.755Z,10.80
2019-03-06T11:05:19.876Z,10.63
2019-03-06T11:07:47.234Z,10.20
2019-03-06T11:10:23.324Z,10.93
2019-03-06T11:12:42.496Z,11.13
2019-03-06T11:15:11.543Z,12.03
2019-03-06T11:17:37.898Z,10.60
2019-03-06T11:20:11.291Z,11.30
2019-03-06T11:22:37.911Z,10.90
2019-03-06T11:25:08.047Z,10.00
2019-03-06T11:27:34.377Z,9.97
2019-03-06T11:30:00.797Z,10.20
2019-03-06T11:32:27.873Z,9.57
2019-03-06T11:34:54.103Z,9.80
2019-03-06T11:37:20.922Z,9.20
2019-03-06T11:39:47.169Z,9.30
2019-03-06T11:42:13.895Z,8.63
2019-03-06T11:44:40.848Z,8.67
2019-03-06T11:47:07.181Z,8.70
2019-03-06T11:49:34.114Z,9.90
2019-03-06T11:52:00.373Z,10.53
2019-03-06T11:54:26.568Z,9.00
2019-03-06T11:56:52.921Z,9.30
2019-03-06T11:59:19.241Z,9.27
2019-03-06T12:01:48.200Z,8.83
2019-03-06T12:04:14.711Z,8.93
2019-03-06T12:06:41.430Z,7.73
2019-03-06T12:09:17.918Z,8.23
2019-03-06T12:11:44.130Z,7.70
2019-03-06T12:14:10.380Z,9.10
2019-03-06T12:16:41.740Z,8.23
2019-03-06T12:19:04.635Z,8.57
2019-03-06T12:21:30.854Z,7.20
2019-03-06T12:23:57.119Z,7.63
2019-03-06T12:26:25.953Z,7.57
2019-03-06T12:28:52.226Z,7.20
2019-03-06T12:31:18.546Z,7.47
2019-03-06T12:33:44.898Z,6.70
2019-03-06T12:36:11.219Z,7.47
2019-03-06T12:38:37.558Z,7.60
2019-03-06T12:41:04.582Z,6.80
2019-03-06T12:43:31.225Z,6.97
2019-03-06T12:46:22.739Z,7.73
2019-03-06T12:48:56.321Z,6.90
2019-03-06T12:51:22.993Z,5.77
2019-03-06T12:53:49.228Z,6.70
2019-03-06T12:56:15.557Z,6.07
2019-03-06T12:58:42.070Z,6.10
2019-03-06T13:01:08.509Z,6.70
2019-03-06T13:03:34.912Z,7.17
2019-03-06T13:06:01.139Z,6.60
2019-03-06T13:08:27.365Z,6.80
2019-03-06T13:10:54.245Z,6.43
2019-03-06T13:13:20.479Z,6.13
2019-03-06T13:15:47.120Z,6.43
2019-03-06T13:18:13.654Z,6.60
2019-03-06T13:20:39.974Z,5.43
2019-03-06T13:23:08.234Z,6.37
2019-03-06T13:25:34.566Z,5.70
2019-03-06T13:28:00.932Z,5.67
2019-03-06T13:30:27.953Z,6.23
2019-03-06T13:33:09.492Z,6.70
2019-03-06T13:35:37.747Z,6.50
2019-03-06T13:38:04.580Z,7.00
2019-03-06T13:40:30.830Z,6.43
2019-03-06T13:42:57.354Z,5.73
2019-03-06T13:45:24.329Z,6.37
2019-03-06T13:47:51.084Z,6.20
2019-03-06T13:50:17.867Z,5.70
2019-03-06T13:52:44.140Z,5.87
2019-03-06T13:55:12.354Z,5.23
2019-03-06T13:57:39.015Z,4.97
2019-03-06T14:00:12.202Z,5.53
2019-03-06T14:02:38.426Z,5.67
2019-03-06T14:05:06.267Z,5.27
2019-03-06T14:07:32.692Z,4.10
2019-03-06T14:09:58.934Z,4.97
2019-03-06T14:12:25.147Z,4.27
2019-03-06T14:14:51.602Z,4.80
2019-03-06T14:17:18.150Z,4.20
2019-03-06T14:19:45.099Z,4.13
2019-03-06T14:22:11.562Z,3.90
2019-03-06T14:24:38.185Z,4.30
2019-03-06T14:27:05.595Z,4.20
2019-03-06T14:29:31.835Z,3.90
2019-03-06T14:31:58.108Z,5.67
2019-03-06T14:34:24.650Z,4.40
2019-03-06T14:36:51.080Z,3.80
2019-03-06T14:39:20.312Z,4.40
2019-03-06T14:41:46.647Z,4.67
2019-03-06T14:44:12.996Z,4.33
2019-03-06T14:46:39.742Z,4.40
2019-03-06T14:49:05.987Z,4.37
2019-03-06T14:51:32.210Z,4.83
2019-03-06T14:53:58.475Z,4.17
2019-03-06T14:56:25.101Z,4.23
2019-03-06T14:58:51.315Z,3.63
2019-03-06T15:01:17.868Z,4.47
2019-03-06T15:03:44.389Z,4.60
2019-03-06T15:06:12.576Z,4.10
2019-03-06T15:08:38.663Z,4.37
2019-03-06T15:11:04.926Z,4.30
2019-03-06T15:13:31.291Z,3.93
2019-03-06T15:15:57.901Z,3.70
2019-03-06T15:18:24.131Z,4.23
2019-03-06T15:20:50.379Z,4.70
2019-03-06T15:23:16.743Z,4.20
2019-03-06T15:25:42.963Z,3.80
2019-03-06T15:28:09.179Z,3.63
2019-03-06T15:30:35.532Z,3.50
2019-03-06T15:33:02.262Z,3.63
2019-03-06T15:35:28.599Z,3.70
2019-03-06T15:37:54.827Z,3.43
2019-03-06T15:40:32.673Z,3.83
2019-03-06T15:42:59.095Z,4.10
2019-03-06T15:45:30.282Z,4.20
2019-03-06T15:47:59.395Z,4.20
2019-03-06T15:50:26.392Z,3.50
2019-03-06T15:52:53.457Z,3.80
2019-03-06T15:55:24.303Z,3.80
2019-03-06T15:57:50.551Z,4.10
2019-03-06T16:00:32.779Z,3.57
2019-03-06T16:02:59.214Z,4.00
2019-03-06T16:05:25.749Z,3.90
2019-03-06T16:07:54.513Z,3.77
2019-03-06T16:10:21.318Z,4.00
2019-03-06T16:12:47.964Z,3.53
2019-03-06T16:15:14.738Z,4.07
2019-03-06T16:17:41.150Z,3.00
2019-03-06T16:20:13.730Z,3.40
2019-03-06T16:22:40.155Z,3.37
2019-03-06T16:25:06.716Z,3.60
2019-03-06T16:27:33.310Z,4.00
2019-03-06T16:29:59.548Z,4.17
2019-03-06T16:32:27.960Z,3.40
2019-03-06T16:34:54.007Z,3.80
2019-03-06T16:37:21.271Z,4.33
2019-03-06T16:39:47.497Z,3.97
2019-03-06T16:42:13.853Z,3.60
2019-03-06T16:44:40.399Z,4.80
2019-03-06T16:47:07.176Z,5.57
2019-03-06T16:49:33.515Z,4.97
2019-03-06T16:52:00.219Z,3.90
2019-03-06T16:54:26.542Z,3.53
2019-03-06T16:56:52.789Z,4.17
2019-03-06T16:59:19.004Z,3.80
2019-03-06T17:01:45.354Z,4.53
2019-03-06T17:04:11.768Z,3.40
2019-03-06T17:06:38.119Z,4.17
2019-03-06T17:09:04.651Z,3.30
2019-03-06T17:11:30.999Z,3.77
2019-03-06T17:13:57.236Z,4.20
2019-03-06T17:16:24.041Z,3.87
2019-03-06T17:18:50.480Z,3.90
2019-03-06T17:21:16.951Z,4.50
2019-03-06T17:24:03.347Z,3.60
2019-03-06T17:26:29.795Z,3.90
2019-03-06T17:28:56.008Z,4.40
2019-03-06T17:31:22.711Z,4.43
2019-03-06T17:33:48.943Z,4.50
2019-03-06T17:36:15.288Z,4.57
2019-03-06T17:38:41.511Z,4.00
2019-03-06T17:41:07.903Z,3.90
2019-03-06T17:43:34.787Z,4.80
2019-03-06T17:46:01.279Z,4.07
2019-03-06T17:48:27.499Z,5.07
2019-03-06T17:50:53.738Z,4.37
2019-03-06T17:53:19.964Z,4.63
2019-03-06T17:55:46.322Z,4.53
2019-03-06T17:58:12.658Z,4.70
2019-03-06T18:00:40.791Z,4.60
2019-03-06T18:03:08.763Z,4.40
2019-03-06T18:05:34.983Z,4.33
2019-03-06T18:08:07.319Z,4.80
2019-03-06T18:10:33.782Z,4.33
2019-03-06T18:13:00.127Z,4.50
2019-03-06T18:15:26.648Z,4.70
2019-03-06T18:17:52.891Z,5.57
2019-03-06T18:20:19.563Z,4.73
2019-03-06T18:22:45.914Z,4.60
2019-03-06T18:25:14.935Z,4.87
2019-03-06T18:27:41.183Z,5.83
2019-03-06T18:30:10.910Z,5.73
2019-03-06T18:32:37.860Z,5.73
2019-03-06T18:35:06.783Z,6.03
2019-03-06T18:37:33.034Z,5.90
2019-03-06T18:39:59.638Z,6.40
2019-03-06T18:42:26.172Z,5.87
2019-03-06T18:44:52.563Z,5.23
2019-03-06T18:47:19.147Z,5.67
2019-03-06T18:49:45.687Z,5.47
2019-03-06T18:52:12.138Z,5.87
2019-03-06T18:54:38.363Z,5.27
2019-03-06T18:57:04.980Z,5.50
2019-03-06T18:59:31.515Z,6.03
2019-03-06T19:01:58.072Z,5.00
2019-03-06T19:04:24.697Z,4.80
2019-03-06T19:06:51.036Z,5.47
2019-03-06T19:09:17.272Z,5.10
2019-03-06T19:11:43.911Z,4.97
2019-03-06T19:14:10.215Z,5.03
2019-03-06T19:16:36.472Z,5.33
2019-03-06T19:19:03.386Z,5.73
2019-03-06T19:21:29.612Z,5.73
2019-03-06T19:23:56.267Z,6.00
2019-03-06T19:26:22.482Z,5.80
2019-03-06T19:28:48.712Z,5.90
2019-03-06T19:31:16.987Z,5.63
2019-03-06T19:33:43.427Z,5.50
2019-03-06T19:36:09.984Z,5.43
2019-03-06T19:38:36.206Z,5.77
2019-03-06T19:41:02.827Z,5.73
2019-03-06T19:43:29.074Z,6.10
2019-03-06T19:45:55.381Z,6.10
2019-03-06T19:48:21.620Z,6.33
2019-03-06T19:50:48.035Z,6.80
2019-03-06T19:53:14.279Z,6.87
2019-03-06T19:55:40.725Z,6.53
2019-03-06T19:58:09.860Z,5.80
2019-03-06T20:00:36.222Z,6.17
2019-03-06T20:03:05.384Z,5.80
2019-03-06T20:05:34.650Z,6.20
2019-03-06T20:08:05.152Z,5.87
2019-03-06T20:10:31.814Z,6.30
2019-03-06T20:12:58.470Z,5.83
2019-03-06T20:15:25.006Z,6.60
2019-03-06T20:17:51.237Z,7.50
2019-03-06T20:20:18.089Z,5.90
2019-03-06T20:22:45.313Z,6.50
2019-03-06T20:25:12.397Z,6.13
2019-03-06T20:27:38.694Z,5.80
2019-03-06T20:30:11.183Z,6.17
2019-03-06T20:32:37.434Z,5.50
2019-03-06T20:35:04.860Z,5.27
2019-03-06T20:37:31.113Z,7.00
2019-03-06T20:39:57.710Z,6.50
2019-03-06T20:42:23.968Z,5.37
2019-03-06T20:44:50.410Z,6.10
2019-03-06T20:47:17.015Z,5.37
2019-03-06T20:49:43.260Z,5.30
2019-03-06T20:52:09.815Z,5.70
2019-03-06T20:54:36.064Z,6.20
2019-03-06T20:57:02.394Z,5.60
2019-03-06T20:59:28.987Z,6.10
2019-03-06T21:01:55.522Z,5.77
2019-03-06T21:04:22.450Z,5.87
2019-03-06T21:06:48.756Z,5.93
2019-03-06T21:09:17.029Z,5.90
2019-03-06T21:11:43.505Z,5.10
2019-03-06T21:14:09.987Z,6.03
2019-03-06T21:16:37.338Z,5.60
2019-03-06T21:19:04.032Z,5.67
2019-03-06T21:21:30.771Z,5.90
2019-03-06T21:23:57.420Z,5.10
2019-03-06T21:26:23.662Z,5.37
2019-03-06T21:28:50.061Z,6.50
2019-03-06T21:31:16.472Z,5.40
2019-03-06T21:33:43.113Z,5.17
2019-03-06T21:36:09.699Z,5.70
2019-03-06T21:38:35.927Z,5.43
2019-03-06T21:41:02.155Z,5.30
2019-03-06T21:43:28.425Z,5.70
2019-03-06T21:45:54.760Z,5.53
2019-03-06T21:48:21.070Z,5.70
2019-03-06T21:50:47.294Z,6.07
2019-03-06T21:53:14.017Z,5.30
2019-03-06T21:55:40.322Z,5.77
2019-03-06T21:58:06.546Z,5.47
2019-03-06T22:00:32.841Z,4.93
2019-03-06T22:02:59.090Z,5.67
2019-03-06T22:05:25.344Z,5.50
2019-03-06T22:07:52.153Z,5.93
2019-03-06T22:10:18.403Z,5.93
2019-03-06T22:12:44.833Z,5.53
2019-03-06T22:15:15.634Z,5.60
2019-03-06T22:17:44.883Z,6.50
2019-03-06T22:20:12.931Z,5.90
2019-03-06T22:22:39.331Z,5.50
2019-03-06T22:25:15.894Z,6.90
2019-03-06T22:27:44.155Z,5.90
2019-03-06T22:30:18.876Z,5.80
2019-03-06T22:32:46.398Z,5.47
2019-03-06T22:35:14.334Z,4.87
2019-03-06T22:37:40.650Z,5.10
2019-03-06T22:40:10.007Z,5.33
2019-03-06T22:42:36.253Z,4.90
2019-03-06T22:45:04.716Z,4.57
2019-03-06T22:47:30.998Z,4.97
2019-03-06T22:49:57.263Z,4.80
2019-03-06T22:52:23.474Z,4.77
2019-03-06T22:54:50.082Z,4.37
2019-03-06T22:57:16.310Z,4.40
2019-03-06T22:59:42.727Z,4.33
2019-03-06T23:02:09.294Z,3.93
2019-03-06T23:04:35.806Z,4.17
2019-03-06T23:07:02.164Z,4.20
2019-03-06T23:09:28.451Z,3.70
2019-03-06T23:11:54.659Z,4.03
2019-03-06T23:14:20.911Z,3.70
2019-03-06T23:16:47.446Z,3.53
2019-03-06T23:19:13.702Z,3.90
2019-03-06T23:21:39.926Z,3.80
2019-03-06T23:24:06.560Z,4.23
2019-03-06T23:26:42.278Z,4.70
2019-03-06T23:29:00.841Z,5.03
2019-03-06T23:31:27.199Z,3.83
2019-03-06T23:33:53.628Z,3.93
2019-03-06T23:36:19.854Z,3.60
2019-03-06T23:38:46.167Z,3.80
2019-03-06T23:41:12.387Z,3.63
2019-03-06T23:43:38.952Z,4.00
2019-03-06T23:46:05.180Z,3.90
2019-03-06T23:48:31.390Z,3.37
2019-03-06T23:50:59.247Z,4.10
2019-03-06T23:53:27.419Z,3.53
2019-03-06T23:55:53.979Z,3.87
2019-03-06T23:58:20.214Z,3.90
